ENRY

Moss , Rygge Airport

Rygge, Norway
METAR ENRY 120020Z AUTO VRB01KT 9999NDV BKN057/// M02/M04 Q1029
Observed Flight Rules
Dec-12 @ 00:20 UTC (22 minutes ago)
Wind Clouds
Variable at 1 knots
  • Broken at 5,700' AGL
Temperatures Readings
Current -2°C / 28°F
Dewpoint -4°C / 25°F
Humidity 86%
Altimeter 30.38" Hg
Pressure 1029 hPa
Elevation 53
METAR ENRY 120020Z AUTO VRB01KT 9999NDV BKN057/// M02/M04 Q1029
Observed Flight Rules
Dec-12 @ 00:20 UTC
(22 minutes ago)
Wind
Variable at 1 knots
Clouds
  • Broken at 5,700' AGL
Temperature Dewpoint
-2°C / 28°F -4°C / 25°F
Humidity Altimeter Pressure
86% 30.38" Hg 1029 hPa